createdAt,value
2022-12-01T00:00:25.749Z,7.28
2022-12-01T00:02:52.519Z,7.39
2022-12-01T00:05:19.232Z,7.30
2022-12-01T00:07:48.540Z,7.30
2022-12-01T00:10:15.268Z,7.33
2022-12-01T00:12:41.900Z,7.37
2022-12-01T00:15:08.589Z,7.33
2022-12-01T00:17:35.253Z,7.40
2022-12-01T00:20:01.882Z,7.42
2022-12-01T00:22:28.635Z,7.39
2022-12-01T00:24:55.250Z,7.36
2022-12-01T00:27:21.865Z,7.39
2022-12-01T00:29:48.773Z,7.34
2022-12-01T00:32:15.560Z,7.33
2022-12-01T00:34:42.257Z,7.35
2022-12-01T00:37:08.892Z,7.33
2022-12-01T00:39:35.523Z,7.37
2022-12-01T00:42:02.166Z,7.33
2022-12-01T00:44:28.788Z,7.36
2022-12-01T00:46:55.412Z,7.35
2022-12-01T00:49:22.034Z,7.32
2022-12-01T00:51:49.548Z,7.32
2022-12-01T00:54:16.198Z,7.29
2022-12-01T00:56:43.194Z,7.23
2022-12-01T00:59:09.856Z,7.30
2022-12-01T01:01:36.565Z,7.32
2022-12-01T01:04:03.225Z,7.30
2022-12-01T01:06:29.898Z,7.37
2022-12-01T01:08:56.548Z,7.31
2022-12-01T01:11:23.192Z,7.29
2022-12-01T01:13:49.813Z,7.38
2022-12-01T01:16:20.656Z,7.29
2022-12-01T01:18:47.584Z,7.29
2022-12-01T01:21:16.140Z,7.26
2022-12-01T01:23:42.884Z,7.20
2022-12-01T01:26:17.174Z,7.22
2022-12-01T01:28:43.957Z,7.24
2022-12-01T01:31:12.307Z,7.30
2022-12-01T01:33:39.059Z,7.30
2022-12-01T01:36:05.957Z,7.36
2022-12-01T01:38:32.904Z,7.38
2022-12-01T01:40:59.577Z,7.30
2022-12-01T01:43:39.438Z,7.20
2022-12-01T01:46:06.280Z,7.23
2022-12-01T01:48:33.818Z,7.09
2022-12-01T01:51:00.921Z,7.17
2022-12-01T01:53:27.602Z,7.11
2022-12-01T01:55:54.234Z,7.18
2022-12-01T01:58:20.862Z,7.13
2022-12-01T02:00:47.508Z,7.17
2022-12-01T02:03:16.250Z,7.13
2022-12-01T02:05:42.873Z,7.24
2022-12-01T02:08:09.614Z,7.24
2022-12-01T02:11:11.501Z,7.12
2022-12-01T02:14:06.279Z,7.16
2022-12-01T02:16:49.566Z,7.15
2022-12-01T02:19:43.048Z,7.10
2022-12-01T02:22:28.481Z,7.18
2022-12-01T02:25:14.268Z,7.15
2022-12-01T02:28:01.806Z,7.11
2022-12-01T02:30:43.715Z,7.14
2022-12-01T02:33:28.581Z,7.21
2022-12-01T02:36:11.262Z,7.22
2022-12-01T02:38:59.747Z,7.14
2022-12-01T02:41:29.098Z,7.12
2022-12-01T02:44:16.829Z,7.05
2022-12-01T02:46:52.113Z,7.08
2022-12-01T02:49:20.949Z,7.06
2022-12-01T02:51:47.574Z,7.13
2022-12-01T02:54:14.541Z,7.13
2022-12-01T02:56:43.355Z,7.13
2022-12-01T02:59:13.668Z,7.21
2022-12-01T03:02:09.684Z,7.21
2022-12-01T03:04:45.437Z,7.11
2022-12-01T03:07:45.141Z,7.07
2022-12-01T03:10:42.251Z,7.08
2022-12-01T03:13:19.242Z,7.03
2022-12-01T03:15:53.453Z,7.13
2022-12-01T03:18:25.990Z,7.11
2022-12-01T03:21:06.459Z,7.03
2022-12-01T03:23:35.390Z,7.02
2022-12-01T03:26:03.210Z,7.18
2022-12-01T03:28:31.136Z,7.21
2022-12-01T03:31:00.406Z,7.15
2022-12-01T03:33:36.553Z,7.22
2022-12-01T03:36:11.709Z,7.21
2022-12-01T03:38:38.474Z,7.18
2022-12-01T03:41:10.649Z,7.21
2022-12-01T03:43:40.853Z,7.20
2022-12-01T03:46:08.493Z,7.21
2022-12-01T03:48:35.189Z,7.14
2022-12-01T03:51:01.729Z,7.18
2022-12-01T03:53:29.865Z,7.26
2022-12-01T03:56:01.278Z,7.23
2022-12-01T03:58:31.124Z,7.13
2022-12-01T04:00:57.764Z,7.22
2022-12-01T04:03:24.968Z,7.20
2022-12-01T04:05:51.601Z,7.19
2022-12-01T04:08:18.264Z,7.13
2022-12-01T04:10:44.908Z,7.12
2022-12-01T04:13:11.549Z,7.03
2022-12-01T04:15:38.197Z,7.10
2022-12-01T04:18:05.142Z,7.06
2022-12-01T04:20:31.770Z,7.07
2022-12-01T04:22:58.388Z,7.03
2022-12-01T04:25:25.138Z,6.98
2022-12-01T04:27:51.755Z,6.94
2022-12-01T04:30:18.401Z,6.97
2022-12-01T04:32:45.130Z,7.01
2022-12-01T04:35:11.987Z,6.97
2022-12-01T04:37:39.015Z,6.98
2022-12-01T04:40:06.198Z,7.03
2022-12-01T04:42:32.814Z,6.99
2022-12-01T04:44:59.442Z,7.07
2022-12-01T04:47:26.082Z,7.07
2022-12-01T04:49:52.742Z,7.01
2022-12-01T04:52:19.360Z,6.98
2022-12-01T04:54:45.961Z,7.02
2022-12-01T04:57:12.595Z,7.04
2022-12-01T04:59:39.296Z,7.13
2022-12-01T05:02:06.026Z,7.07
2022-12-01T05:04:32.826Z,7.17
2022-12-01T05:06:59.472Z,7.07
2022-12-01T05:09:26.116Z,7.04
2022-12-01T05:11:52.730Z,7.00
2022-12-01T05:14:19.386Z,7.12
2022-12-01T05:16:46.091Z,7.01
2022-12-01T05:19:12.813Z,7.03
2022-12-01T05:21:40.206Z,6.98
2022-12-01T05:24:07.093Z,7.05
2022-12-01T05:26:33.713Z,7.07
2022-12-01T05:29:00.351Z,7.07
2022-12-01T05:31:27.058Z,7.07
2022-12-01T05:33:53.706Z,6.92
2022-12-01T05:36:20.342Z,6.98
2022-12-01T05:38:46.977Z,6.97
2022-12-01T05:41:13.657Z,7.05
2022-12-01T05:43:40.280Z,6.94
2022-12-01T05:46:06.981Z,6.99
2022-12-01T05:48:34.498Z,6.98
2022-12-01T05:51:10.414Z,7.00
2022-12-01T05:53:37.047Z,6.97
2022-12-01T05:56:03.904Z,6.94
2022-12-01T05:58:30.535Z,6.88
2022-12-01T06:00:57.212Z,6.88
2022-12-01T06:03:23.850Z,6.89
2022-12-01T06:05:50.478Z,6.87
2022-12-01T06:08:17.099Z,6.87
2022-12-01T06:10:44.263Z,6.90
2022-12-01T06:13:10.890Z,6.86
2022-12-01T06:15:37.534Z,6.86
2022-12-01T06:18:04.191Z,6.87
2022-12-01T06:20:30.832Z,6.77
2022-12-01T06:22:57.469Z,6.80
2022-12-01T06:25:24.108Z,6.77
2022-12-01T06:27:50.735Z,6.76
2022-12-01T06:30:17.355Z,6.76
2022-12-01T06:32:44.015Z,6.75
2022-12-01T06:35:10.666Z,6.78
2022-12-01T06:37:37.279Z,6.82
2022-12-01T06:40:04.161Z,6.87
2022-12-01T06:42:30.779Z,6.83
2022-12-01T06:44:57.418Z,6.79
2022-12-01T06:47:25.098Z,6.81
2022-12-01T06:49:52.140Z,6.83
2022-12-01T06:52:18.866Z,6.81
2022-12-01T06:54:46.331Z,6.79
2022-12-01T06:57:13.390Z,6.78
2022-12-01T06:59:40.256Z,6.76
2022-12-01T07:02:10.419Z,6.78
2022-12-01T07:04:37.092Z,6.81
2022-12-01T07:07:05.094Z,6.84
2022-12-01T07:09:31.750Z,6.89
2022-12-01T07:11:58.410Z,6.88
2022-12-01T07:14:25.582Z,6.93
2022-12-01T07:16:52.334Z,6.90
2022-12-01T07:19:19.001Z,6.91
2022-12-01T07:21:45.656Z,6.89
2022-12-01T07:24:12.366Z,6.87
2022-12-01T07:26:39.181Z,6.88
2022-12-01T07:29:05.814Z,6.94
2022-12-01T07:31:32.482Z,7.09
2022-12-01T07:33:59.150Z,7.03
2022-12-01T07:36:25.790Z,6.88
2022-12-01T07:38:52.491Z,6.96
2022-12-01T07:41:19.278Z,6.93
2022-12-01T07:43:45.971Z,6.90
2022-12-01T07:46:23.150Z,6.90
2022-12-01T07:48:50.692Z,6.99
2022-12-01T07:51:17.384Z,7.07
2022-12-01T07:53:47.815Z,7.04
2022-12-01T07:56:15.142Z,7.08
2022-12-01T07:58:41.910Z,6.98
2022-12-01T08:01:09.707Z,7.02
2022-12-01T08:03:36.913Z,7.05
2022-12-01T08:06:04.097Z,7.09
2022-12-01T08:08:31.517Z,7.12
2022-12-01T08:11:02.623Z,7.17
2022-12-01T08:13:29.662Z,7.17
2022-12-01T08:15:56.548Z,7.18
2022-12-01T08:18:23.387Z,7.18
2022-12-01T08:20:50.615Z,7.21
2022-12-01T08:23:17.266Z,7.29
2022-12-01T08:25:44.081Z,7.21
2022-12-01T08:28:10.716Z,7.25
2022-12-01T08:30:37.349Z,7.27
2022-12-01T08:33:04.376Z,7.25
2022-12-01T08:35:31.221Z,7.16
2022-12-01T08:37:57.842Z,7.13
2022-12-01T08:40:24.810Z,7.15
2022-12-01T08:42:52.084Z,7.19
2022-12-01T08:45:18.739Z,7.19
2022-12-01T08:47:45.395Z,7.19
2022-12-01T08:50:12.078Z,7.26
2022-12-01T08:52:38.702Z,7.26
2022-12-01T08:55:05.811Z,7.33
2022-12-01T08:57:32.555Z,7.44
2022-12-01T08:59:59.200Z,7.52
2022-12-01T09:02:25.980Z,7.53
2022-12-01T09:04:52.656Z,7.53
2022-12-01T09:07:24.639Z,7.55
2022-12-01T09:09:52.957Z,7.66
2022-12-01T09:12:19.596Z,7.66
2022-12-01T09:14:46.239Z,7.56
2022-12-01T09:17:12.869Z,7.62
2022-12-01T09:19:39.518Z,7.58
2022-12-01T09:22:06.150Z,7.58
2022-12-01T09:24:32.784Z,7.52
2022-12-01T09:26:59.553Z,7.55
2022-12-01T09:29:26.214Z,7.57
2022-12-01T09:31:55.652Z,7.65
2022-12-01T09:34:22.283Z,7.69
2022-12-01T09:36:48.927Z,7.66
2022-12-01T09:39:17.315Z,7.63
2022-12-01T09:41:45.033Z,7.71
2022-12-01T09:44:16.118Z,7.70
2022-12-01T09:46:53.155Z,7.81
2022-12-01T09:49:25.248Z,7.72
2022-12-01T09:51:52.828Z,7.73
2022-12-01T09:54:19.470Z,7.73
2022-12-01T09:56:47.717Z,7.74
2022-12-01T09:59:18.525Z,7.75
2022-12-01T10:01:46.580Z,7.77
2022-12-01T10:04:37.705Z,7.80
2022-12-01T10:07:15.298Z,7.80
2022-12-01T10:10:11.680Z,7.79
2022-12-01T10:12:38.356Z,7.86
2022-12-01T10:15:33.110Z,7.78
2022-12-01T10:18:34.965Z,7.79
2022-12-01T10:21:03.903Z,7.85
2022-12-01T10:23:49.308Z,7.88
2022-12-01T10:26:29.981Z,7.83
2022-12-01T10:29:09.967Z,7.79
2022-12-01T10:31:40.767Z,7.79
2022-12-01T10:34:18.061Z,7.84
2022-12-01T10:36:44.711Z,7.90
2022-12-01T10:39:19.908Z,7.98
2022-12-01T10:41:47.471Z,8.14
2022-12-01T10:44:14.100Z,8.26
2022-12-01T10:46:50.222Z,8.25
2022-12-01T10:49:17.709Z,8.28
2022-12-01T10:51:46.924Z,8.23
2022-12-01T10:54:13.550Z,8.21
2022-12-01T10:56:40.359Z,8.23
2022-12-01T10:59:24.925Z,8.21
2022-12-01T11:01:51.741Z,8.17
2022-12-01T11:04:46.104Z,8.17
2022-12-01T11:07:20.454Z,8.11
2022-12-01T11:09:48.998Z,8.12
2022-12-01T11:12:17.171Z,8.21
2022-12-01T11:14:49.082Z,8.23
2022-12-01T11:17:40.846Z,8.35
2022-12-01T11:20:26.195Z,8.36
2022-12-01T11:22:53.230Z,8.35
2022-12-01T11:25:20.864Z,8.34
2022-12-01T11:27:52.330Z,8.44
2022-12-01T11:30:26.898Z,8.49
2022-12-01T11:32:57.472Z,8.54
2022-12-01T11:35:25.784Z,8.63
2022-12-01T11:38:27.883Z,8.64
2022-12-01T11:40:51.283Z,8.62
2022-12-01T11:43:28.857Z,8.69
2022-12-01T11:45:56.840Z,8.76
2022-12-01T11:48:30.598Z,8.71
2022-12-01T11:51:27.347Z,8.75
2022-12-01T11:54:14.675Z,8.62
2022-12-01T11:56:41.604Z,8.52
2022-12-01T11:59:20.312Z,8.53
2022-12-01T12:01:56.368Z,8.64
2022-12-01T12:04:45.619Z,8.54
2022-12-01T12:07:40.173Z,8.74
2022-12-01T12:10:23.475Z,8.66
2022-12-01T12:13:22.282Z,8.76
2022-12-01T12:15:57.805Z,8.68
2022-12-01T12:18:55.381Z,8.72
2022-12-01T12:21:38.155Z,8.68
2022-12-01T12:24:07.709Z,8.71
2022-12-01T12:27:00.135Z,8.63
2022-12-01T12:29:51.975Z,8.70
2022-12-01T12:32:46.440Z,8.63
2022-12-01T12:35:25.026Z,8.67
2022-12-01T12:38:05.418Z,8.64
2022-12-01T12:40:47.036Z,8.46
2022-12-01T12:43:47.018Z,8.57
2022-12-01T12:46:38.258Z,8.58
2022-12-01T12:49:26.739Z,8.59
2022-12-01T12:52:13.030Z,8.64
2022-12-01T12:54:43.222Z,8.57
2022-12-01T12:57:31.315Z,8.56
2022-12-01T13:00:04.319Z,8.53
2022-12-01T13:02:52.312Z,8.63
2022-12-01T13:05:23.165Z,8.66
2022-12-01T13:08:01.781Z,8.62
2022-12-01T13:10:37.086Z,8.63
2022-12-01T13:13:30.968Z,8.71
2022-12-01T13:15:58.000Z,8.77
2022-12-01T13:18:29.133Z,8.67
2022-12-01T13:20:56.024Z,8.63
2022-12-01T13:23:22.682Z,8.60
2022-12-01T13:25:51.769Z,8.65
2022-12-01T13:28:29.259Z,8.72
2022-12-01T13:31:04.467Z,8.67
2022-12-01T13:33:31.228Z,8.53
2022-12-01T13:36:29.928Z,8.63
2022-12-01T13:38:44.543Z,8.53
2022-12-01T13:41:24.427Z,8.58
2022-12-01T13:44:02.516Z,8.60
2022-12-01T13:46:44.310Z,8.63
2022-12-01T13:49:47.250Z,8.70
2022-12-01T13:52:23.036Z,8.66
2022-12-01T13:55:09.801Z,8.74
2022-12-01T13:57:44.285Z,8.62
2022-12-01T14:00:25.976Z,8.57
2022-12-01T14:03:14.577Z,8.52
2022-12-01T14:05:53.120Z,8.49
2022-12-01T14:08:24.367Z,8.40
2022-12-01T14:10:56.840Z,8.42
2022-12-01T14:13:23.506Z,8.44
2022-12-01T14:15:57.626Z,8.47
2022-12-01T14:18:34.114Z,8.40
2022-12-01T14:21:01.950Z,8.32
2022-12-01T14:23:30.972Z,8.34
2022-12-01T14:26:01.029Z,8.42
2022-12-01T14:28:55.214Z,8.42
2022-12-01T14:31:22.684Z,8.41
2022-12-01T14:33:50.802Z,8.37
2022-12-01T14:36:23.274Z,8.30
2022-12-01T14:38:50.077Z,8.32
2022-12-01T14:41:24.665Z,8.30
2022-12-01T14:43:57.656Z,8.32
2022-12-01T14:46:24.667Z,8.31
2022-12-01T14:48:51.367Z,8.28
2022-12-01T14:51:28.657Z,8.32
2022-12-01T14:53:55.864Z,8.28
2022-12-01T14:56:24.047Z,8.31
2022-12-01T14:58:58.701Z,8.32
2022-12-01T15:01:33.858Z,8.29
2022-12-01T15:04:02.025Z,8.27
2022-12-01T15:06:28.998Z,8.20
2022-12-01T15:12:03.980Z,8.19
2022-12-01T15:14:37.529Z,8.08
2022-12-01T15:17:04.934Z,8.01
2022-12-01T15:19:35.885Z,8.07
2022-12-01T15:22:11.488Z,7.94
2022-12-01T15:24:38.108Z,7.98
2022-12-01T15:27:04.757Z,7.98
2022-12-01T15:29:42.495Z,7.94
2022-12-01T15:32:11.452Z,7.95
2022-12-01T15:34:42.015Z,7.99
2022-12-01T15:37:20.491Z,8.00
2022-12-01T15:40:54.189Z,8.04
2022-12-01T15:43:06.384Z,7.97
2022-12-01T15:45:42.756Z,7.89
2022-12-01T15:48:17.166Z,7.86
2022-12-01T15:50:46.590Z,7.85
2022-12-01T15:53:30.694Z,7.83
2022-12-01T15:55:59.268Z,7.80
2022-12-01T15:58:27.822Z,7.75
2022-12-01T16:01:01.980Z,7.79
2022-12-01T16:03:28.689Z,7.79
2022-12-01T16:05:55.546Z,7.76
2022-12-01T16:08:24.303Z,7.76
2022-12-01T16:11:10.050Z,7.77
2022-12-01T16:14:00.550Z,7.71
2022-12-01T16:16:46.351Z,7.67
2022-12-01T16:19:12.956Z,7.62
2022-12-01T16:21:49.200Z,7.56
2022-12-01T16:24:20.968Z,7.58
2022-12-01T16:26:48.285Z,7.53
2022-12-01T16:29:19.403Z,7.51
2022-12-01T16:32:12.449Z,7.44
2022-12-01T16:34:46.000Z,7.43
2022-12-01T16:37:13.694Z,7.41
2022-12-01T16:39:40.387Z,7.38
2022-12-01T16:42:07.147Z,7.41
2022-12-01T16:44:33.865Z,7.32
2022-12-01T16:47:00.496Z,7.37
2022-12-01T16:49:27.217Z,7.43
2022-12-01T16:51:56.455Z,7.44
2022-12-01T16:54:23.645Z,7.40
2022-12-01T16:56:50.265Z,7.45
2022-12-01T16:59:16.908Z,7.39
2022-12-01T17:01:43.646Z,7.32
2022-12-01T17:04:10.515Z,7.31
2022-12-01T17:06:37.634Z,7.28
2022-12-01T17:09:04.544Z,7.27
2022-12-01T17:11:31.221Z,7.28
2022-12-01T17:13:57.868Z,7.38
2022-12-01T17:16:24.531Z,7.38
2022-12-01T17:18:51.189Z,7.32
2022-12-01T17:21:17.849Z,7.26
2022-12-01T17:23:44.481Z,7.27
2022-12-01T17:26:12.871Z,7.33
2022-12-01T17:28:39.504Z,7.27
2022-12-01T17:31:06.693Z,7.22
2022-12-01T17:33:33.802Z,7.18
2022-12-01T17:36:04.673Z,7.22
2022-12-01T17:38:33.667Z,7.19
2022-12-01T17:41:07.476Z,7.26
2022-12-01T17:43:34.695Z,7.25
2022-12-01T17:46:01.377Z,7.26
2022-12-01T17:48:28.187Z,7.27
2022-12-01T17:50:54.827Z,7.16
2022-12-01T17:53:21.496Z,7.09
2022-12-01T17:55:48.138Z,7.08
2022-12-01T17:58:15.818Z,7.15
2022-12-01T18:00:42.459Z,7.14
2022-12-01T18:03:09.679Z,7.09
2022-12-01T18:05:36.401Z,7.08
2022-12-01T18:08:03.114Z,7.06
2022-12-01T18:10:29.788Z,6.98
2022-12-01T18:12:56.433Z,6.96
2022-12-01T18:15:23.061Z,7.00
2022-12-01T18:17:49.762Z,7.00
2022-12-01T18:20:16.411Z,7.04
2022-12-01T18:22:43.045Z,7.01
2022-12-01T18:25:09.690Z,7.03
2022-12-01T18:27:36.338Z,7.07
2022-12-01T18:30:03.533Z,7.11
2022-12-01T18:32:30.153Z,7.00
2022-12-01T18:34:57.090Z,7.03
2022-12-01T18:37:23.728Z,6.92
2022-12-01T18:39:50.361Z,6.96
2022-12-01T18:42:17.005Z,6.93
2022-12-01T18:44:43.653Z,6.94
2022-12-01T18:47:10.374Z,6.92
2022-12-01T18:49:37.034Z,7.02
2022-12-01T18:52:03.677Z,7.02
2022-12-01T18:54:30.342Z,7.07
2022-12-01T18:56:56.983Z,7.03
2022-12-01T18:59:23.600Z,7.00
2022-12-01T19:01:50.288Z,6.99
2022-12-01T19:04:16.973Z,6.93
2022-12-01T19:06:44.207Z,6.84
2022-12-01T19:09:12.015Z,6.92
2022-12-01T19:11:38.874Z,6.92
2022-12-01T19:14:05.511Z,6.90
2022-12-01T19:16:32.196Z,6.86
2022-12-01T19:19:00.094Z,6.76
2022-12-01T19:21:26.768Z,6.75
2022-12-01T19:23:53.411Z,6.75
2022-12-01T19:26:21.201Z,6.81
2022-12-01T19:28:47.932Z,6.89
2022-12-01T19:31:19.707Z,6.79
2022-12-01T19:33:46.805Z,6.84
2022-12-01T19:36:15.241Z,6.86
2022-12-01T19:38:41.859Z,6.83
2022-12-01T19:41:08.740Z,6.88
2022-12-01T19:43:35.520Z,6.86
2022-12-01T19:46:09.426Z,6.88
2022-12-01T19:48:36.132Z,6.89
2022-12-01T19:51:02.868Z,6.90
2022-12-01T19:53:33.628Z,7.00
2022-12-01T19:56:01.848Z,6.92
2022-12-01T19:58:28.493Z,6.95
2022-12-01T20:00:55.197Z,6.95
2022-12-01T20:03:21.826Z,6.94
2022-12-01T20:05:48.467Z,6.94
2022-12-01T20:08:15.078Z,6.94
2022-12-01T20:10:48.080Z,7.04
2022-12-01T20:13:14.694Z,6.95
2022-12-01T20:15:41.326Z,7.00
2022-12-01T20:18:07.940Z,6.97
2022-12-01T20:20:34.578Z,7.06
2022-12-01T20:23:01.325Z,7.03
2022-12-01T20:25:27.958Z,7.05
2022-12-01T20:27:54.653Z,6.99
2022-12-01T20:30:21.268Z,6.96
2022-12-01T20:32:48.731Z,6.92
2022-12-01T20:35:15.391Z,6.91
2022-12-01T20:37:42.023Z,7.03
2022-12-01T20:40:09.127Z,6.87
2022-12-01T20:42:35.785Z,6.91
2022-12-01T20:45:02.453Z,6.82
2022-12-01T20:47:29.078Z,6.77
2022-12-01T20:49:58.439Z,6.76
2022-12-01T20:52:25.276Z,6.81
2022-12-01T20:54:52.109Z,6.78
2022-12-01T20:57:18.985Z,6.83
2022-12-01T20:59:45.603Z,6.80
2022-12-01T21:02:12.516Z,6.84
2022-12-01T21:04:39.146Z,6.84
2022-12-01T21:07:05.827Z,6.74
2022-12-01T21:09:32.446Z,6.72
2022-12-01T21:11:59.060Z,6.65
2022-12-01T21:14:52.236Z,6.71
2022-12-01T21:17:31.906Z,6.74
2022-12-01T21:20:03.297Z,6.79
2022-12-01T21:22:30.109Z,6.78
2022-12-01T21:25:10.342Z,6.81
2022-12-01T21:27:37.529Z,6.70
2022-12-01T21:30:14.187Z,6.68
2022-12-01T21:32:43.893Z,6.66
2022-12-01T21:35:16.708Z,6.71
2022-12-01T21:37:43.356Z,6.71
2022-12-01T21:40:25.746Z,6.67
2022-12-01T21:42:52.467Z,6.75
2022-12-01T21:45:22.583Z,6.79
2022-12-01T21:47:49.222Z,6.72
2022-12-01T21:50:19.487Z,6.80
2022-12-01T21:52:46.274Z,6.85
2022-12-01T21:55:15.765Z,6.77
2022-12-01T21:57:49.924Z,6.76
2022-12-01T22:00:23.293Z,6.79
2022-12-01T22:02:51.777Z,6.83
2022-12-01T22:05:26.939Z,6.76
2022-12-01T22:07:59.064Z,6.83
2022-12-01T22:10:59.826Z,6.71
2022-12-01T22:13:49.970Z,6.68
2022-12-01T22:16:30.285Z,6.69
2022-12-01T22:19:01.197Z,6.75
2022-12-01T22:21:37.576Z,6.76
2022-12-01T22:24:10.084Z,6.73
2022-12-01T22:26:42.414Z,6.68
2022-12-01T22:29:31.187Z,6.63
2022-12-01T22:32:07.034Z,6.69
2022-12-01T22:34:33.863Z,6.73
2022-12-01T22:37:00.683Z,6.68
2022-12-01T22:39:30.701Z,6.71
2022-12-01T22:41:58.815Z,6.75
2022-12-01T22:44:26.262Z,6.81
2022-12-01T22:46:59.900Z,6.73
2022-12-01T22:49:26.907Z,6.72
2022-12-01T22:52:24.630Z,6.66
2022-12-01T22:54:51.613Z,6.64
2022-12-01T22:57:26.745Z,6.61
2022-12-01T22:59:53.402Z,6.70
2022-12-01T23:02:29.752Z,6.74
2022-12-01T23:04:59.885Z,6.72
2022-12-01T23:07:29.316Z,6.70
2022-12-01T23:09:57.873Z,6.73
2022-12-01T23:12:32.224Z,6.70
2022-12-01T23:15:07.309Z,6.72
2022-12-01T23:17:33.980Z,6.73
2022-12-01T23:20:33.450Z,6.70
2022-12-01T23:23:02.500Z,6.68
2022-12-01T23:25:29.312Z,6.70
2022-12-01T23:27:59.137Z,6.68
2022-12-01T23:30:25.810Z,6.77
2022-12-01T23:33:10.679Z,6.78
2022-12-01T23:35:50.892Z,6.71
2022-12-01T23:38:24.126Z,6.72
2022-12-01T23:40:51.847Z,6.72
2022-12-01T23:43:25.916Z,6.69
2022-12-01T23:46:12.368Z,6.68
2022-12-01T23:48:48.434Z,6.71
2022-12-01T23:51:20.292Z,6.72
2022-12-01T23:53:46.945Z,6.78
2022-12-01T23:56:19.744Z,6.78
2022-12-01T23:58:46.527Z,6.76
